createdAt,value
2022-09-28T00:00:47.634Z,97841.19
2022-09-28T00:01:49.441Z,97840.50
2022-09-28T00:02:51.417Z,97838.94
2022-09-28T00:03:58.360Z,97836.56
2022-09-28T00:05:00.054Z,97841.63
2022-09-28T00:06:08.082Z,97819.09
2022-09-28T00:07:09.812Z,97833.31
2022-09-28T00:08:11.453Z,97842.59
2022-09-28T00:09:14.375Z,97833.59
2022-09-28T00:10:16.202Z,97834.16
2022-09-28T00:11:19.349Z,97826.81
2022-09-28T00:12:21.899Z,97818.88
2022-09-28T00:13:24.728Z,97828.97
2022-09-28T00:14:26.582Z,97820.94
2022-09-28T00:15:28.254Z,97825.22
2022-09-28T00:16:33.080Z,97825.22
2022-09-28T00:17:36.513Z,97825.00
2022-09-28T00:18:38.182Z,97827.94
2022-09-28T00:19:44.104Z,97828.19
2022-09-28T00:20:45.762Z,97818.06
2022-09-28T00:21:48.105Z,97818.59
2022-09-28T00:22:49.842Z,97814.06
2022-09-28T00:24:12.009Z,97819.09
2022-09-28T00:25:13.819Z,97822.06
2022-09-28T00:26:15.502Z,97823.13
2022-09-28T00:27:18.203Z,97824.19
2022-09-28T00:28:19.825Z,97809.81
2022-09-28T00:29:32.663Z,97820.97
2022-09-28T00:30:34.350Z,97806.59
2022-09-28T00:31:37.029Z,97797.03
2022-09-28T00:32:38.755Z,97812.19
2022-09-28T00:33:40.827Z,97814.53
2022-09-28T00:34:46.093Z,97817.22
2022-09-28T00:35:54.705Z,97812.09
2022-09-28T00:36:56.363Z,97819.28
2022-09-28T00:37:58.029Z,97814.22
2022-09-28T00:39:03.218Z,97809.16
2022-09-28T00:40:05.473Z,97815.56
2022-09-28T00:41:08.288Z,97810.81
2022-09-28T00:42:24.321Z,97808.94
2022-09-28T00:43:28.199Z,97808.94
2022-09-28T00:44:46.018Z,97809.72
2022-09-28T00:45:59.197Z,97804.16
2022-09-28T00:47:38.101Z,97807.84
2022-09-28T00:48:47.415Z,97800.91
2022-09-28T00:50:07.709Z,97798.53
2022-09-28T00:51:12.787Z,97788.16
2022-09-28T00:53:07.384Z,97797.19
2022-09-28T00:54:09.806Z,97771.31
2022-09-28T00:55:22.239Z,97790.16
2022-09-28T00:56:27.159Z,97779.75
2022-09-28T00:57:29.979Z,97781.63
2022-09-28T00:58:36.547Z,97792.00
2022-09-28T00:59:38.308Z,97790.34
2022-09-28T01:00:43.341Z,97787.63
2022-09-28T01:01:45.250Z,97796.41
2022-09-28T01:02:47.916Z,97794.56
2022-09-28T01:03:49.637Z,97788.25
2022-09-28T01:04:52.339Z,97794.09
2022-09-28T01:05:57.571Z,97794.63
2022-09-28T01:06:59.345Z,97791.94
2022-09-28T01:08:02.289Z,97795.09
2022-09-28T01:09:07.747Z,97795.88
2022-09-28T01:10:09.942Z,97794.81
2022-09-28T01:11:11.643Z,97792.13
2022-09-28T01:12:13.334Z,97786.81
2022-09-28T01:13:16.675Z,97781.75
2022-09-28T01:14:19.381Z,97786.47
2022-09-28T01:15:22.246Z,97792.84
2022-09-28T01:17:01.166Z,97779.50
2022-09-28T01:18:27.196Z,97782.97
2022-09-28T01:20:07.118Z,97784.84
2022-09-28T01:21:23.892Z,97775.84
2022-09-28T01:22:52.249Z,97786.72
2022-09-28T01:24:31.152Z,97785.91
2022-09-28T01:25:48.009Z,97790.75
2022-09-28T01:26:52.448Z,97795.00
2022-09-28T01:28:04.457Z,97783.06
2022-09-28T01:29:21.788Z,97789.19
2022-09-28T01:30:23.582Z,97790.75
2022-09-28T01:31:28.468Z,97789.19
2022-09-28T01:32:36.927Z,97789.75
2022-09-28T01:33:55.624Z,97799.59
2022-09-28T01:35:21.194Z,97793.47
2022-09-28T01:36:30.324Z,97782.31
2022-09-28T01:37:42.283Z,97785.47
2022-09-28T01:38:49.438Z,97795.31
2022-09-28T01:39:52.841Z,97784.16
2022-09-28T01:40:56.699Z,97781.22
2022-09-28T01:42:05.256Z,97792.34
2022-09-28T01:43:26.026Z,97787.81
2022-09-28T01:44:31.993Z,97779.06
2022-09-28T01:45:40.630Z,97787.53
2022-09-28T01:46:46.807Z,97784.88
2022-09-28T01:47:50.008Z,97788.63
2022-09-28T01:48:59.263Z,97782.72
2022-09-28T01:50:07.417Z,97786.72
2022-09-28T01:51:17.387Z,97764.31
2022-09-28T01:52:31.810Z,97771.81
2022-09-28T01:53:37.534Z,97783.28
2022-09-28T01:54:46.371Z,97783.56
2022-09-28T01:55:53.779Z,97767.34
2022-09-28T01:57:12.189Z,97779.31
2022-09-28T01:58:22.809Z,97784.66
2022-09-28T01:59:28.666Z,97766.78
2022-09-28T02:00:30.631Z,97779.34
2022-09-28T02:01:41.532Z,97775.41
2022-09-28T02:03:17.011Z,97783.41
2022-09-28T02:04:24.248Z,97783.16
2022-09-28T02:05:34.182Z,97789.56
2022-09-28T02:06:47.821Z,97790.34
2022-09-28T02:07:59.719Z,97770.69
2022-09-28T02:09:11.679Z,97789.31
2022-09-28T02:10:19.433Z,97795.44
2022-09-28T02:11:22.628Z,97796.78
2022-09-28T02:12:31.861Z,97800.63
2022-09-28T02:13:37.668Z,97799.63
2022-09-28T02:14:41.535Z,97801.28
2022-09-28T02:15:49.950Z,97803.44
2022-09-28T02:16:56.853Z,97784.81
2022-09-28T02:17:58.578Z,97810.34
2022-09-28T02:19:01.148Z,97809.22
2022-09-28T02:20:03.469Z,97803.63
2022-09-28T02:21:12.797Z,97809.47
2022-09-28T02:22:28.690Z,97809.72
2022-09-28T02:23:33.852Z,97801.22
2022-09-28T02:24:50.856Z,97811.31
2022-09-28T02:26:02.280Z,97803.31
2022-09-28T02:27:13.094Z,97806.78
2022-09-28T02:28:14.956Z,97808.09
2022-09-28T02:29:17.043Z,97778.84
2022-09-28T02:30:18.995Z,97796.38
2022-09-28T02:31:20.785Z,97798.28
2022-09-28T02:32:24.410Z,97805.22
2022-09-28T02:33:38.353Z,97805.50
2022-09-28T02:34:40.024Z,97797.22
2022-09-28T02:35:42.869Z,97802.81
2022-09-28T02:36:46.977Z,97787.41
2022-09-28T02:37:49.989Z,97789.53
2022-09-28T02:38:52.533Z,97795.13
2022-09-28T02:39:54.250Z,97797.28
2022-09-28T02:41:14.789Z,97792.75
2022-09-28T02:42:46.485Z,97795.16
2022-09-28T02:44:03.381Z,97799.16
2022-09-28T02:45:35.380Z,97797.56
2022-09-28T02:46:45.789Z,97799.16
2022-09-28T02:48:06.553Z,97805.28
2022-09-28T02:49:42.524Z,97804.47
2022-09-28T02:50:52.704Z,97802.91
2022-09-28T02:52:19.752Z,97799.47
2022-09-28T02:53:45.714Z,97797.09
2022-09-28T02:54:56.086Z,97799.50
2022-09-28T02:56:11.698Z,97798.69
2022-09-28T02:57:19.820Z,97803.97
2022-09-28T02:58:39.775Z,97801.84
2022-09-28T03:00:05.701Z,97796.06
2022-09-28T03:01:25.401Z,97794.22
2022-09-28T03:02:53.423Z,97795.00
2022-09-28T03:04:05.813Z,97797.94
2022-09-28T03:05:24.534Z,97795.56
2022-09-28T03:06:37.641Z,97787.81
2022-09-28T03:07:46.929Z,97796.59
2022-09-28T03:08:59.953Z,97775.31
2022-09-28T03:10:20.675Z,97801.91
2022-09-28T03:11:43.850Z,97804.56
2022-09-28T03:12:48.398Z,97802.44
2022-09-28T03:13:51.931Z,97804.56
2022-09-28T03:15:24.317Z,97804.56
2022-09-28T03:16:27.687Z,97786.75
2022-09-28T03:17:29.434Z,97806.97
2022-09-28T03:18:32.405Z,97805.09
2022-09-28T03:19:34.811Z,97792.63
2022-09-28T03:20:37.408Z,97810.97
2022-09-28T03:21:39.435Z,97814.44
2022-09-28T03:22:41.094Z,97789.16
2022-09-28T03:23:43.253Z,97810.44
2022-09-28T03:24:44.916Z,97826.13
2022-09-28T03:25:46.586Z,97814.97
2022-09-28T03:26:48.231Z,97832.00
2022-09-28T03:27:49.893Z,97827.47
2022-09-28T03:28:51.641Z,97821.09
2022-09-28T03:29:53.345Z,97809.91
2022-09-28T03:30:55.282Z,97801.13
2022-09-28T03:31:56.997Z,97822.94
2022-09-28T03:32:59.680Z,97809.38
2022-09-28T03:34:01.416Z,97820.78
2022-09-28T03:35:03.498Z,97818.94
2022-09-28T03:36:06.074Z,97805.38
2022-09-28T03:37:07.752Z,97820.56
2022-09-28T03:38:09.396Z,97818.94
2022-09-28T03:39:11.184Z,97817.09
2022-09-28T03:40:13.041Z,97819.50
2022-09-28T03:41:14.713Z,97818.41
2022-09-28T03:42:16.387Z,97823.75
2022-09-28T03:43:18.030Z,97826.16
2022-09-28T03:44:19.887Z,97832.00
2022-09-28T03:45:21.605Z,97809.38
2022-09-28T03:46:23.313Z,97819.50
2022-09-28T03:47:25.004Z,97812.03
2022-09-28T03:48:36.661Z,97829.09
2022-09-28T03:49:38.305Z,97823.22
2022-09-28T03:50:40.019Z,97823.22
2022-09-28T03:51:41.666Z,97833.34
2022-09-28T03:52:43.648Z,97811.28
2022-09-28T03:53:45.333Z,97835.72
2022-09-28T03:54:49.219Z,97835.22
2022-09-28T03:55:53.379Z,97833.09
2022-09-28T03:56:55.057Z,97823.50
2022-09-28T03:57:56.783Z,97827.50
2022-09-28T03:58:58.514Z,97785.44
2022-09-28T04:00:00.305Z,97832.00
2022-09-28T04:01:14.144Z,97827.75
2022-09-28T04:02:18.369Z,97824.81
2022-09-28T04:03:20.014Z,97836.25
2022-09-28T04:04:21.650Z,97829.59
2022-09-28T04:05:23.319Z,97831.72
2022-09-28T04:06:25.609Z,97827.47
2022-09-28T04:07:30.919Z,97824.31
2022-09-28T04:08:33.085Z,97823.50
2022-09-28T04:09:34.816Z,97824.81
2022-09-28T04:10:36.476Z,97829.63
2022-09-28T04:11:59.403Z,97829.63
2022-09-28T04:12:59.960Z,97833.59
2022-09-28T04:14:01.658Z,97835.19
2022-09-28T04:15:03.428Z,97816.31
2022-09-28T04:16:05.530Z,97826.44
2022-09-28T04:17:07.326Z,97825.63
2022-09-28T04:18:13.691Z,97810.47
2022-09-28T04:19:15.808Z,97813.63
2022-09-28T04:20:18.010Z,97818.19
2022-09-28T04:21:20.777Z,97816.84
2022-09-28T04:22:23.479Z,97811.53
2022-09-28T04:23:25.252Z,97820.56
2022-09-28T04:24:26.907Z,97808.88
2022-09-28T04:25:28.615Z,97805.41
2022-09-28T04:26:30.558Z,97808.84
2022-09-28T04:27:50.944Z,97822.16
2022-09-28T04:29:11.457Z,97832.28
2022-09-28T04:30:13.457Z,97830.94
2022-09-28T04:31:18.063Z,97836.00
2022-09-28T04:32:19.753Z,97834.94
2022-09-28T04:33:21.420Z,97825.88
2022-09-28T04:34:23.667Z,97816.31
2022-09-28T04:35:25.407Z,97842.41
2022-09-28T04:36:27.053Z,97835.75
2022-09-28T04:37:31.328Z,97850.38
2022-09-28T04:38:51.930Z,97852.53
2022-09-28T04:39:54.729Z,97850.63
2022-09-28T04:40:56.415Z,97862.63
2022-09-28T04:41:58.130Z,97852.53
2022-09-28T04:42:59.789Z,97847.72
2022-09-28T04:44:01.864Z,97862.63
2022-09-28T04:45:04.980Z,97849.84
2022-09-28T04:46:06.977Z,97841.59
2022-09-28T04:47:08.705Z,97872.22
2022-09-28T04:48:10.376Z,97863.16
2022-09-28T04:49:12.166Z,97870.38
2022-09-28T04:50:13.923Z,97868.25
2022-09-28T04:51:15.673Z,97876.72
2022-09-28T04:52:18.561Z,97880.72
2022-09-28T04:53:20.995Z,97879.41
2022-09-28T04:54:22.675Z,97866.63
2022-09-28T04:55:24.465Z,97885.81
2022-09-28T04:56:26.149Z,97889.78
2022-09-28T04:57:27.868Z,97894.34
2022-09-28T04:58:31.031Z,97876.47
2022-09-28T04:59:32.700Z,97880.72
2022-09-28T05:00:35.244Z,97888.72
2022-09-28T05:01:37.148Z,97884.19
2022-09-28T05:02:39.282Z,97888.19
2022-09-28T05:03:41.996Z,97871.13
2022-09-28T05:04:43.668Z,97880.16
2022-09-28T05:05:45.925Z,97874.00
2022-09-28T05:06:47.555Z,97886.38
2022-09-28T05:07:49.223Z,97875.13
2022-09-28T05:08:50.885Z,97881.59
2022-09-28T05:09:53.001Z,97863.59
2022-09-28T05:11:00.148Z,97873.94
2022-09-28T05:12:02.065Z,97885.63
2022-09-28T05:13:03.758Z,97882.84
2022-09-28T05:14:06.081Z,97888.56
2022-09-28T05:15:08.007Z,97872.47
2022-09-28T05:16:10.638Z,97874.03
2022-09-28T05:17:12.332Z,97891.53
2022-09-28T05:18:14.333Z,97882.28
2022-09-28T05:19:16.113Z,97875.31
2022-09-28T05:20:17.790Z,97882.06
2022-09-28T05:21:20.218Z,97880.00
2022-09-28T05:22:21.897Z,97877.22
2022-09-28T05:23:23.577Z,97880.53
2022-09-28T05:24:25.223Z,97889.47
2022-09-28T05:25:26.868Z,97896.38
2022-09-28T05:26:28.533Z,97884.25
2022-09-28T05:27:30.225Z,97898.16
2022-09-28T05:28:33.494Z,97884.94
2022-09-28T05:29:35.140Z,97892.78
2022-09-28T05:30:37.312Z,97896.03
2022-09-28T05:31:39.054Z,97898.94
2022-09-28T05:32:44.439Z,97884.53
2022-09-28T05:33:46.094Z,97886.44
2022-09-28T05:34:47.826Z,97889.28
2022-09-28T05:35:53.823Z,97885.78
2022-09-28T05:36:56.930Z,97888.00
2022-09-28T05:38:04.651Z,97881.09
2022-09-28T05:39:06.975Z,97895.63
2022-09-28T05:40:09.301Z,97897.00
2022-09-28T05:41:11.150Z,97894.81
2022-09-28T05:42:12.836Z,97899.16
2022-09-28T05:43:14.508Z,97894.91
2022-09-28T05:44:16.495Z,97899.94
2022-09-28T05:45:18.459Z,97903.63
2022-09-28T05:46:21.341Z,97904.00
2022-09-28T05:47:23.028Z,97900.88
2022-09-28T05:48:25.209Z,97886.84
2022-09-28T05:49:29.331Z,97896.84
2022-09-28T05:50:31.129Z,97872.28
2022-09-28T05:51:32.794Z,97893.31
2022-09-28T05:52:34.572Z,97887.69
2022-09-28T05:53:36.609Z,97893.91
2022-09-28T05:54:38.339Z,97881.84
2022-09-28T05:55:40.143Z,97905.53
2022-09-28T05:56:41.867Z,97918.53
2022-09-28T05:57:43.538Z,97919.44
2022-09-28T05:58:45.227Z,97921.56
2022-09-28T05:59:47.034Z,97915.25
2022-09-28T06:00:55.048Z,97918.41
2022-09-28T06:01:56.708Z,97911.75
2022-09-28T06:03:00.194Z,97911.06
2022-09-28T06:04:01.846Z,97921.78
2022-09-28T06:05:03.750Z,97917.72
2022-09-28T06:06:05.551Z,97911.63
2022-09-28T06:07:07.305Z,97904.59
2022-09-28T06:08:13.412Z,97904.59
2022-09-28T06:09:15.100Z,97910.75
2022-09-28T06:10:16.821Z,97899.63
2022-09-28T06:11:18.863Z,97908.84
2022-09-28T06:12:20.545Z,97911.00
2022-09-28T06:13:22.252Z,97908.94
2022-09-28T06:14:24.171Z,97914.69
2022-09-28T06:15:29.857Z,97916.25
2022-09-28T06:16:31.594Z,97911.28
2022-09-28T06:17:33.276Z,97902.44
2022-09-28T06:18:35.260Z,97902.50
2022-09-28T06:19:36.901Z,97905.50
2022-09-28T06:20:41.420Z,97914.38
2022-09-28T06:21:43.121Z,97905.34
2022-09-28T06:22:44.803Z,97917.59
2022-09-28T06:23:49.222Z,97916.38
2022-09-28T06:24:51.200Z,97916.34
2022-09-28T06:25:52.844Z,97922.56
2022-09-28T06:26:54.613Z,97912.53
2022-09-28T06:28:15.120Z,97920.47
2022-09-28T06:29:19.656Z,97915.59
2022-09-28T06:30:22.344Z,97918.47
2022-09-28T06:31:25.121Z,97919.84
2022-09-28T06:32:29.337Z,97914.56
2022-09-28T06:33:31.072Z,97919.06
2022-09-28T06:34:32.748Z,97915.69
2022-09-28T06:35:35.630Z,97900.91
2022-09-28T06:36:37.308Z,97913.47
2022-09-28T06:37:39.031Z,97912.41
2022-09-28T06:38:40.750Z,97912.19
2022-09-28T06:39:42.414Z,97896.22
2022-09-28T06:40:44.250Z,97908.09
2022-09-28T06:41:45.984Z,97911.88
2022-09-28T06:43:10.673Z,97900.78
2022-09-28T06:44:12.366Z,97916.91
2022-09-28T06:45:14.158Z,97912.22
2022-09-28T06:46:15.863Z,97925.09
2022-09-28T06:47:17.737Z,97920.22
2022-09-28T06:48:19.816Z,97918.81
2022-09-28T06:49:22.270Z,97908.25
2022-09-28T06:50:31.138Z,97913.19
2022-09-28T06:51:33.104Z,97919.13
2022-09-28T06:52:34.795Z,97927.22
2022-09-28T06:53:36.456Z,97924.91
2022-09-28T06:54:38.115Z,97920.59
2022-09-28T06:55:41.168Z,97896.81
2022-09-28T06:56:42.814Z,97935.94
2022-09-28T06:57:44.658Z,97921.72
2022-09-28T06:58:46.348Z,97919.22
2022-09-28T06:59:48.019Z,97933.88
2022-09-28T07:00:53.284Z,97928.78
2022-09-28T07:01:54.982Z,97918.41
2022-09-28T07:02:57.256Z,97920.56
2022-09-28T07:03:59.005Z,97920.84
2022-09-28T07:05:00.684Z,97919.31
2022-09-28T07:06:02.849Z,97921.38
2022-09-28T07:07:04.864Z,97917.56
2022-09-28T07:08:06.598Z,97894.09
2022-09-28T07:09:27.758Z,97912.63
2022-09-28T07:10:31.444Z,97912.75
2022-09-28T07:11:44.471Z,97905.84
2022-09-28T07:12:47.576Z,97892.28
2022-09-28T07:13:51.181Z,97905.34
2022-09-28T07:14:57.404Z,97895.28
2022-09-28T07:16:02.225Z,97906.78
2022-09-28T07:17:13.591Z,97899.34
2022-09-28T07:18:17.993Z,97904.53
2022-09-28T07:19:19.690Z,97903.28
2022-09-28T07:20:21.380Z,97907.25
2022-09-28T07:21:29.869Z,97900.69
2022-09-28T07:22:42.401Z,97890.19
2022-09-28T07:23:52.834Z,97899.25
2022-09-28T07:24:55.666Z,97902.81
2022-09-28T07:25:58.351Z,97909.88
2022-09-28T07:27:00.006Z,97909.13
2022-09-28T07:28:02.814Z,97912.28
2022-09-28T07:29:05.001Z,97906.03
2022-09-28T07:30:07.363Z,97896.22
2022-09-28T07:31:09.766Z,97906.03
2022-09-28T07:32:11.497Z,97901.69
2022-09-28T07:33:16.012Z,97906.81
2022-09-28T07:34:18.626Z,97889.13
2022-09-28T07:35:20.486Z,97868.75
2022-09-28T07:36:22.965Z,97892.59
2022-09-28T07:37:26.660Z,97906.66
2022-09-28T07:38:28.368Z,97900.34
2022-09-28T07:39:30.022Z,97902.69
2022-09-28T07:40:52.442Z,97900.78
2022-09-28T07:41:56.763Z,97899.94
2022-09-28T07:43:07.313Z,97897.94
2022-09-28T07:44:08.970Z,97902.19
2022-09-28T07:45:11.185Z,97896.63
2022-09-28T07:46:13.035Z,97901.31
2022-09-28T07:47:15.019Z,97893.97
2022-09-28T07:48:17.350Z,97903.47
2022-09-28T07:49:19.478Z,97908.28
2022-09-28T07:50:21.649Z,97904.38
2022-09-28T07:51:23.326Z,97905.94
2022-09-28T07:52:26.473Z,97902.06
2022-09-28T07:53:28.715Z,97911.09
2022-09-28T07:54:31.417Z,97890.72
2022-09-28T07:55:33.210Z,97902.09
2022-09-28T07:56:35.153Z,97900.94
2022-09-28T07:57:36.865Z,97902.09
2022-09-28T07:58:39.665Z,97906.00
2022-09-28T07:59:41.331Z,97900.53
2022-09-28T08:00:45.112Z,97910.72
2022-09-28T08:01:49.667Z,97902.09
2022-09-28T08:02:51.616Z,97902.09
2022-09-28T08:03:56.411Z,97909.91
2022-09-28T08:04:58.289Z,97910.63
2022-09-28T08:06:01.294Z,97901.16
2022-09-28T08:07:03.698Z,97898.72
2022-09-28T08:08:05.440Z,97903.75
2022-09-28T08:09:07.129Z,97900.88
2022-09-28T08:10:09.330Z,97903.88
2022-09-28T08:11:16.971Z,97897.50
2022-09-28T08:12:19.845Z,97904.97
2022-09-28T08:13:23.561Z,97903.00
2022-09-28T08:14:28.695Z,97900.47
2022-09-28T08:15:37.151Z,97903.94
2022-09-28T08:16:38.827Z,97906.81
2022-09-28T08:17:46.302Z,97906.09
2022-09-28T08:18:51.110Z,97896.75
2022-09-28T08:20:11.520Z,97903.22
2022-09-28T08:21:31.476Z,97908.16
2022-09-28T08:22:33.212Z,97897.91
2022-09-28T08:23:34.863Z,97904.41
2022-09-28T08:24:36.495Z,97897.38
2022-09-28T08:25:38.382Z,97898.75
2022-09-28T08:26:40.041Z,97906.59
2022-09-28T08:27:41.784Z,97912.34
2022-09-28T08:28:45.277Z,97898.13
2022-09-28T08:29:46.962Z,97908.09
2022-09-28T08:30:49.138Z,97909.69
2022-09-28T08:31:50.798Z,97915.59
2022-09-28T08:32:52.497Z,97911.03
2022-09-28T08:33:54.536Z,97909.44
2022-09-28T08:34:56.187Z,97916.38
2022-09-28T08:35:59.311Z,97902.13
2022-09-28T08:37:00.977Z,97908.19
2022-09-28T08:38:03.509Z,97909.81
2022-09-28T08:39:05.310Z,97912.59
2022-09-28T08:40:17.122Z,97906.78
2022-09-28T08:42:12.469Z,97901.28
2022-09-28T08:43:31.431Z,97912.28
2022-09-28T08:45:49.243Z,97912.28
2022-09-28T08:47:02.157Z,97911.13
2022-09-28T08:48:35.607Z,97903.28
2022-09-28T08:49:45.175Z,97898.97
2022-09-28T08:51:10.838Z,97900.53
2022-09-28T08:52:12.507Z,97913.06
2022-09-28T08:53:36.013Z,97907.50
2022-09-28T08:55:02.572Z,97904.31
2022-09-28T08:56:12.118Z,97900.84
2022-09-28T08:57:20.738Z,97897.34
2022-09-28T08:58:32.482Z,97896.97
2022-09-28T08:59:52.347Z,97896.16
2022-09-28T09:00:54.634Z,97893.31
2022-09-28T09:02:00.942Z,97898.28
2022-09-28T09:03:06.784Z,97896.94
2022-09-28T09:04:09.371Z,97899.19
2022-09-28T09:05:14.926Z,97905.91
2022-09-28T09:06:22.428Z,97900.31
2022-09-28T09:07:33.107Z,97906.91
2022-09-28T09:08:34.618Z,97896.69
2022-09-28T09:09:36.209Z,97896.47
2022-09-28T09:10:50.001Z,97900.22
2022-09-28T09:12:00.859Z,97899.72
2022-09-28T09:13:28.606Z,97895.25
2022-09-28T09:15:07.092Z,97896.34
2022-09-28T09:16:17.845Z,97901.13
2022-09-28T09:17:25.414Z,97899.38
2022-09-28T09:18:37.378Z,97898.44
2022-09-28T09:20:03.591Z,97890.09
2022-09-28T09:21:18.462Z,97889.47
2022-09-28T09:22:38.766Z,97898.38
2022-09-28T09:24:24.846Z,97907.91
2022-09-28T09:25:28.653Z,97899.78
2022-09-28T09:26:40.434Z,97906.22
2022-09-28T09:28:04.674Z,97899.75
2022-09-28T09:29:25.188Z,97905.53
2022-09-28T09:30:31.732Z,97907.09
2022-09-28T09:32:10.816Z,97901.34
2022-09-28T09:33:15.990Z,97901.75
2022-09-28T09:34:46.857Z,97900.75
2022-09-28T09:35:58.999Z,97900.00
2022-09-28T09:37:22.504Z,97898.75
2022-09-28T09:38:48.937Z,97886.56
2022-09-28T09:40:26.362Z,97899.47
2022-09-28T09:41:51.215Z,97902.66
2022-09-28T09:43:11.324Z,97898.81
2022-09-28T09:44:38.911Z,97898.97
2022-09-28T09:45:41.110Z,97902.88
2022-09-28T09:47:02.149Z,97895.78
2022-09-28T09:48:07.672Z,97904.28
2022-09-28T09:49:27.082Z,97901.41
2022-09-28T09:50:32.705Z,97904.84
2022-09-28T09:51:42.088Z,97903.19
2022-09-28T09:52:55.390Z,97907.06
2022-09-28T09:54:12.791Z,97901.50
2022-09-28T09:55:21.741Z,97890.38
2022-09-28T09:56:44.153Z,97903.25
2022-09-28T09:57:54.641Z,97905.19
2022-09-28T09:59:02.856Z,97909.03
2022-09-28T10:00:04.915Z,97894.84
2022-09-28T10:01:14.475Z,97894.81
2022-09-28T10:02:36.468Z,97904.78
2022-09-28T10:03:43.082Z,97898.34
2022-09-28T10:04:47.243Z,97898.22
2022-09-28T10:05:56.785Z,97894.56
2022-09-28T10:07:03.875Z,97891.59
2022-09-28T10:08:08.484Z,97889.16
2022-09-28T10:09:17.036Z,97887.53
2022-09-28T10:10:18.968Z,97888.63
2022-09-28T10:11:27.670Z,97885.75
2022-09-28T10:12:31.174Z,97878.44
2022-09-28T10:13:33.042Z,97885.78
2022-09-28T10:14:35.869Z,97890.81
2022-09-28T10:15:37.580Z,97883.69
2022-09-28T10:16:39.348Z,97883.38
2022-09-28T10:17:41.210Z,97888.06
2022-09-28T10:18:42.878Z,97874.13
2022-09-28T10:19:44.728Z,97888.28
2022-09-28T10:20:46.402Z,97886.00
2022-09-28T10:21:53.167Z,97881.88
2022-09-28T10:22:58.728Z,97879.97
2022-09-28T10:24:04.095Z,97872.94
2022-09-28T10:25:06.636Z,97879.66
2022-09-28T10:26:24.905Z,97879.16
2022-09-28T10:27:34.367Z,97871.34
2022-09-28T10:28:45.436Z,97876.13
2022-09-28T10:29:54.495Z,97872.41
2022-09-28T10:30:56.448Z,97874.63
2022-09-28T10:31:58.218Z,97878.00
2022-09-28T10:33:01.507Z,97871.53
2022-09-28T10:34:04.721Z,97875.84
2022-09-28T10:35:18.678Z,97866.47
2022-09-28T10:36:20.367Z,97871.97
2022-09-28T10:37:22.530Z,97861.47
2022-09-28T10:38:24.730Z,97867.25
2022-09-28T10:39:30.282Z,97863.50
2022-09-28T10:40:37.862Z,97865.19
2022-09-28T10:41:49.909Z,97864.13
2022-09-28T10:42:59.501Z,97857.63
2022-09-28T10:44:07.272Z,97872.78
2022-09-28T10:45:23.463Z,97854.56
2022-09-28T10:46:25.472Z,97855.94
2022-09-28T10:47:33.459Z,97858.66
2022-09-28T10:48:38.962Z,97854.38
2022-09-28T10:49:47.291Z,97856.31
2022-09-28T10:51:08.726Z,97838.50
2022-09-28T10:52:29.199Z,97852.81
2022-09-28T10:53:30.999Z,97854.66
2022-09-28T10:54:32.757Z,97808.44
2022-09-28T10:55:37.018Z,97852.38
2022-09-28T10:56:41.174Z,97839.44
2022-09-28T10:57:42.845Z,97843.25
2022-09-28T10:58:44.831Z,97842.81
2022-09-28T10:59:47.138Z,97833.81
2022-09-28T11:00:49.581Z,97831.44
2022-09-28T11:02:09.673Z,97830.88
2022-09-28T11:03:52.786Z,97826.94
2022-09-28T11:04:58.183Z,97821.84
2022-09-28T11:06:10.849Z,97815.78
2022-09-28T11:07:27.812Z,97817.06
2022-09-28T11:08:38.236Z,97821.38
2022-09-28T11:09:45.357Z,97818.06
2022-09-28T11:10:47.551Z,97808.19
2022-09-28T11:11:49.276Z,97818.91
2022-09-28T11:12:51.562Z,97816.06
2022-09-28T11:14:01.259Z,97808.53
2022-09-28T11:15:06.461Z,97808.56
2022-09-28T11:16:14.191Z,97808.75
2022-09-28T11:17:32.830Z,97809.88
2022-09-28T11:18:34.755Z,97797.25
2022-09-28T11:19:37.106Z,97797.88
2022-09-28T11:20:44.121Z,97800.13
2022-09-28T11:21:46.889Z,97798.53
2022-09-28T11:22:51.619Z,97799.09
2022-09-28T11:23:58.625Z,97797.69
2022-09-28T11:25:17.503Z,97794.59
2022-09-28T11:26:19.401Z,97797.03
2022-09-28T11:27:26.736Z,97801.91
2022-09-28T11:28:37.620Z,97800.28
2022-09-28T11:29:47.000Z,97806.22
2022-09-28T11:30:53.715Z,97787.25
2022-09-28T11:32:01.039Z,97795.63
2022-09-28T11:33:19.233Z,97783.78
2022-09-28T11:34:41.812Z,97788.88
2022-09-28T11:36:11.411Z,97788.09
2022-09-28T11:37:13.618Z,97784.13
2022-09-28T11:38:21.138Z,97789.41
2022-09-28T11:39:49.879Z,97775.84
2022-09-28T11:41:09.414Z,97780.34
2022-09-28T11:42:40.312Z,97774.97
2022-09-28T11:44:00.657Z,97767.38
2022-09-28T11:45:18.339Z,97764.91
2022-09-28T11:46:38.844Z,97768.16
2022-09-28T11:47:47.265Z,97774.28
2022-09-28T11:48:56.599Z,97768.84
2022-09-28T11:50:24.321Z,97769.13
2022-09-28T11:51:36.436Z,97760.78
2022-09-28T11:52:55.076Z,97776.09
2022-09-28T11:54:05.234Z,97760.25
2022-09-28T11:55:18.040Z,97769.72
2022-09-28T11:56:32.692Z,97776.84
2022-09-28T11:57:40.952Z,97778.84
2022-09-28T11:58:50.333Z,97778.22
2022-09-28T11:59:51.953Z,97769.66
2022-09-28T12:01:03.813Z,97772.47
2022-09-28T12:02:16.862Z,97735.59
2022-09-28T12:03:36.213Z,97756.00
2022-09-28T12:04:44.935Z,97756.91
2022-09-28T12:05:59.749Z,97760.84
2022-09-28T12:07:12.098Z,97754.03
2022-09-28T12:08:25.698Z,97744.03
2022-09-28T12:09:56.388Z,97753.19
2022-09-28T12:11:12.576Z,97760.03
2022-09-28T12:12:40.741Z,97753.69
2022-09-28T12:13:48.079Z,97756.16
2022-09-28T12:14:55.180Z,97755.03
2022-09-28T12:17:54.909Z,97747.53
2022-09-28T12:19:03.430Z,97766.03
2022-09-28T12:20:17.428Z,97759.38
2022-09-28T12:21:25.398Z,97759.88
2022-09-28T12:22:38.208Z,97745.56
2022-09-28T12:23:42.128Z,97750.59
2022-09-28T12:24:50.949Z,97751.41
2022-09-28T12:25:59.514Z,97751.97
2022-09-28T12:27:10.266Z,97756.47
2022-09-28T12:28:31.658Z,97756.84
2022-09-28T12:29:41.278Z,97756.53
2022-09-28T12:30:45.448Z,97761.97
2022-09-28T12:32:13.065Z,97759.03
2022-09-28T12:33:15.541Z,97758.81
2022-09-28T12:34:17.326Z,97734.34
2022-09-28T12:35:39.187Z,97750.59
2022-09-28T12:36:54.991Z,97750.34
2022-09-28T12:38:21.407Z,97757.22
2022-09-28T12:39:56.421Z,97745.97
2022-09-28T12:41:07.226Z,97734.69
2022-09-28T12:42:21.608Z,97747.56
2022-09-28T12:43:54.737Z,97747.78
2022-09-28T12:45:21.881Z,97750.03
2022-09-28T12:46:46.100Z,97748.69
2022-09-28T12:48:22.977Z,97744.50
2022-09-28T12:51:47.475Z,97745.34
2022-09-28T12:52:52.050Z,97742.50
2022-09-28T12:54:12.125Z,97747.47
2022-09-28T12:55:16.661Z,97744.78
2022-09-28T12:56:27.297Z,97753.63
2022-09-28T12:57:51.951Z,97752.94
2022-09-28T12:59:08.352Z,97746.19
2022-09-28T13:00:23.007Z,97740.78
2022-09-28T13:01:47.524Z,97745.41
2022-09-28T13:03:07.994Z,97740.09
2022-09-28T13:04:23.249Z,97743.81
2022-09-28T13:06:00.145Z,97743.94
2022-09-28T13:07:26.288Z,97738.88
2022-09-28T13:08:36.703Z,97744.72
2022-09-28T13:09:55.167Z,97749.56
2022-09-28T13:11:01.345Z,97744.16
2022-09-28T13:12:38.128Z,97746.06
2022-09-28T13:13:39.708Z,97747.78
2022-09-28T13:15:16.459Z,97753.81
2022-09-28T13:17:00.409Z,97747.44
2022-09-28T13:18:02.343Z,97746.19
2022-09-28T13:19:03.929Z,97750.47
2022-09-28T13:20:15.785Z,97744.28
2022-09-28T13:21:28.380Z,97744.59
2022-09-28T13:22:56.610Z,97745.03
2022-09-28T13:24:14.760Z,97746.16